Time;durP1;ratioP1;P1;durP2;ratioP2;P2;SDS_P1;SDS_P2;PMS_P1;PMS_P2;Temp;Humidity;BMP_temperature;BMP_pressure;BME280_temperature;BME280_humidity;BME280_pressure;Samples;Min_cycle;Max_cycle;Signal;HPM_P1;HPM_P2
2023/12/11 00:02:30;;;;;;;1.23;0.60;;;;;;;;;;10563109;28;20097;-74
2023/12/11 00:07:33;;;;;;;1.52;0.70;;;;;;;;;;10556956;28;20036;-74
2023/12/11 00:12:37;;;;;;;1.30;0.90;;;;;;;;;;10549413;28;20055;-74
2023/12/11 00:17:41;;;;;;;2.42;0.90;;;;;;;;;;10552530;28;20039;-74
2023/12/11 00:22:44;;;;;;;2.80;1.30;;;;;;;;;;10554527;28;20443;-74
2023/12/11 00:27:48;;;;;;;2.40;0.70;;;;;;;;;;10560257;28;20038;-74
2023/12/11 00:32:53;;;;;;;4.00;1.33;;;;;;;;;;10554396;28;20062;-74
2023/12/11 00:37:57;;;;;;;5.00;2.05;;;;;;;;;;10557452;28;20044;-74
2023/12/11 00:43:00;;;;;;;3.50;1.58;;;;;;;;;;10556620;28;20044;-74
2023/12/11 00:48:05;;;;;;;3.88;1.30;;;;;;;;;;10554111;28;20206;-74
2023/12/11 00:53:08;;;;;;;5.65;1.85;;;;;;;;;;10557760;28;20048;-73
2023/12/11 00:58:12;;;;;;;4.43;1.40;;;;;;;;;;10556405;28;20035;-74
2023/12/11 01:03:16;;;;;;;5.35;1.50;;;;;;;;;;10560939;28;20679;-74
2023/12/11 01:08:20;;;;;;;4.80;1.50;;;;;;;;;;10558768;28;20500;-74
2023/12/11 01:13:23;;;;;;;4.45;1.55;;;;;;;;;;10554255;28;20496;-73
2023/12/11 01:18:27;;;;;;;3.55;1.10;;;;;;;;;;10568038;28;20500;-74
2023/12/11 01:23:31;;;;;;;7.78;1.92;;;;;;;;;;10565093;28;20134;-74
2023/12/11 01:28:34;;;;;;;3.47;1.05;;;;;;;;;;10562351;28;20062;-74
2023/12/11 01:33:39;;;;;;;6.85;1.38;;;;;;;;;;10566929;28;20054;-74
2023/12/11 01:38:42;;;;;;;4.65;1.63;;;;;;;;;;10544767;28;20070;-73
2023/12/11 01:43:52;;;;;;;5.47;1.52;;;;;;;;;;10557994;28;20459;-74
2023/12/11 01:48:57;;;;;;;4.75;1.40;;;;;;;;;;10546754;28;20054;-74
2023/12/11 01:54:01;;;;;;;1.77;0.95;;;;;;;;;;10550758;28;20036;-74
2023/12/11 01:59:04;;;;;;;4.47;1.42;;;;;;;;;;10568246;28;20039;-74
2023/12/11 02:04:09;;;;;;;3.10;0.90;;;;;;;;;;10564882;28;20048;-74
2023/12/11 02:09:12;;;;;;;3.45;1.15;;;;;;;;;;10546568;28;20056;-74
2023/12/11 02:14:15;;;;;;;9.45;1.80;;;;;;;;;;10547270;28;20074;-74
2023/12/11 02:19:20;;;;;;;9.82;1.90;;;;;;;;;;10564438;28;20507;-73
2023/12/11 02:24:30;;;;;;;8.05;2.13;;;;;;;;;;10550596;28;20157;-74
2023/12/11 02:29:34;;;;;;;4.63;1.40;;;;;;;;;;10543666;28;20047;-73
2023/12/11 02:34:37;;;;;;;7.25;1.60;;;;;;;;;;10541374;28;20043;-74
2023/12/11 02:39:41;;;;;;;9.73;2.30;;;;;;;;;;10514864;28;20126;-74
2023/12/11 02:44:45;;;;;;;8.60;2.17;;;;;;;;;;10572710;28;20047;-74
2023/12/11 02:49:49;;;;;;;9.60;1.92;;;;;;;;;;10553370;28;20054;-74
2023/12/11 02:54:52;;;;;;;7.78;2.10;;;;;;;;;;10551274;28;20205;-74
2023/12/11 02:59:57;;;;;;;8.18;2.00;;;;;;;;;;10556702;28;20131;-74
2023/12/11 03:05:00;;;;;;;9.00;2.30;;;;;;;;;;10553790;28;20046;-74
2023/12/11 03:10:03;;;;;;;7.88;2.20;;;;;;;;;;10546232;28;20039;-74
2023/12/11 03:15:10;;;;;;;5.53;1.92;;;;;;;;;;10540114;28;20631;-74
2023/12/11 03:20:13;;;;;;;;;;;;;;;;;;10545805;28;20040;-74
2023/12/11 03:25:16;;;;;;;7.43;1.77;;;;;;;;;;10557538;28;20376;-74
2023/12/11 03:30:21;;;;;;;8.15;2.53;;;;;;;;;;10544340;28;20078;-73
2023/12/11 03:35:24;;;;;;;8.75;2.20;;;;;;;;;;10547493;28;20765;-74
2023/12/11 03:40:27;;;;;;;12.20;3.03;;;;;;;;;;10555904;28;20085;-74
2023/12/11 03:45:32;;;;;;;6.00;1.67;;;;;;;;;;10551536;28;20460;-74
2023/12/11 03:50:35;;;;;;;8.73;2.67;;;;;;;;;;10538124;28;20047;-74
2023/12/11 03:55:39;;;;;;;12.13;2.53;;;;;;;;;;10539600;28;20046;-74
2023/12/11 04:00:43;;;;;;;9.70;1.98;;;;;;;;;;10536819;28;20036;-73
2023/12/11 04:05:46;;;;;;;6.53;1.88;;;;;;;;;;10535332;28;20552;-73
2023/12/11 04:10:50;;;;;;;11.70;2.30;;;;;;;;;;10553091;28;20067;-74
2023/12/11 04:15:54;;;;;;;6.43;1.80;;;;;;;;;;10548430;28;20042;-74
2023/12/11 04:20:58;;;;;;;11.43;2.20;;;;;;;;;;10551336;28;20032;-73
2023/12/11 04:26:02;;;;;;;5.75;1.50;;;;;;;;;;10554839;28;20042;-74
2023/12/11 04:31:06;;;;;;;5.50;1.58;;;;;;;;;;10553561;28;20392;-73
2023/12/11 04:36:10;;;;;;;7.60;2.38;;;;;;;;;;10563812;28;20055;-73
2023/12/11 04:41:13;;;;;;;4.85;1.45;;;;;;;;;;10571903;28;20138;-73
2023/12/11 04:46:18;;;;;;;4.72;2.13;;;;;;;;;;10552589;28;20484;-74
2023/12/11 04:51:21;;;;;;;6.05;1.60;;;;;;;;;;10536845;28;20465;-74
2023/12/11 04:56:25;;;;;;;6.28;1.70;;;;;;;;;;10567721;28;20373;-74
2023/12/11 05:01:29;;;;;;;3.83;1.45;;;;;;;;;;10539409;28;20042;-73
2023/12/11 05:06:32;;;;;;;5.00;1.10;;;;;;;;;;10558770;28;20047;-73
2023/12/11 05:11:36;;;;;;;5.70;1.60;;;;;;;;;;10566707;28;20063;-74
2023/12/11 05:16:40;;;;;;;5.60;1.90;;;;;;;;;;10554980;28;20039;-74
2023/12/11 05:21:44;;;;;;;8.95;2.03;;;;;;;;;;10550887;28;20036;-73
2023/12/11 05:26:48;;;;;;;5.85;1.65;;;;;;;;;;10568699;28;20047;-74
2023/12/11 05:31:52;;;;;;;9.52;2.17;;;;;;;;;;10552998;28;20412;-74
2023/12/11 05:36:55;;;;;;;7.70;2.00;;;;;;;;;;10551687;28;20058;-73
2023/12/11 05:41:59;;;;;;;6.07;2.25;;;;;;;;;;10545553;28;20096;-73
2023/12/11 05:47:03;;;;;;;8.15;1.80;;;;;;;;;;10557551;28;20051;-73
2023/12/11 05:52:07;;;;;;;8.10;2.00;;;;;;;;;;10561555;28;20127;-73
2023/12/11 05:57:10;;;;;;;5.68;1.88;;;;;;;;;;10554618;28;20130;-74
2023/12/11 06:02:15;;;;;;;5.05;1.55;;;;;;;;;;10562320;28;20050;-74
2023/12/11 06:07:18;;;;;;;5.68;1.58;;;;;;;;;;10543959;28;20408;-73
2023/12/11 06:12:21;;;;;;;6.38;1.73;;;;;;;;;;10549296;28;20544;-74
2023/12/11 06:17:26;;;;;;;5.75;1.83;;;;;;;;;;10539621;28;20043;-74
2023/12/11 06:22:29;;;;;;;5.07;1.65;;;;;;;;;;10561427;28;20126;-73
2023/12/11 06:27:32;;;;;;;6.03;1.60;;;;;;;;;;10563328;28;20547;-73
2023/12/11 06:32:37;;;;;;;6.03;2.00;;;;;;;;;;10555261;28;20031;-73
2023/12/11 06:37:41;;;;;;;10.98;1.92;;;;;;;;;;10559779;28;20108;-74
2023/12/11 06:42:44;;;;;;;6.43;1.42;;;;;;;;;;10557504;28;20496;-73
2023/12/11 06:47:48;;;;;;;6.40;1.50;;;;;;;;;;10555501;28;20492;-74
2023/12/11 06:52:52;;;;;;;5.47;1.70;;;;;;;;;;10543965;28;20408;-73
2023/12/11 06:57:55;;;;;;;4.47;1.25;;;;;;;;;;10551102;28;20056;-75
2023/12/11 07:03:00;;;;;;;4.40;1.27;;;;;;;;;;10548612;28;20124;-73
2023/12/11 07:08:04;;;;;;;4.28;1.40;;;;;;;;;;10545959;28;20546;-73
2023/12/11 07:13:07;;;;;;;7.32;2.10;;;;;;;;;;10557812;28;20043;-74
2023/12/11 07:18:13;;;;;;;6.10;1.60;;;;;;;;;;10557053;28;20044;-73
2023/12/11 07:23:17;;;;;;;6.32;1.30;;;;;;;;;;10552529;28;20031;-73
2023/12/11 07:28:21;;;;;;;4.88;1.70;;;;;;;;;;10562333;28;20050;-74
2023/12/11 07:33:25;;;;;;;4.65;1.25;;;;;;;;;;10553171;28;20123;-73
2023/12/11 07:38:30;;;;;;;4.72;1.70;;;;;;;;;;10548226;28;20611;-73
2023/12/11 07:43:33;;;;;;;7.80;1.80;;;;;;;;;;10553072;28;20123;-73
2023/12/11 07:48:38;;;;;;;11.10;2.58;;;;;;;;;;10530169;28;20511;-74
2023/12/11 07:53:44;;;;;;;6.40;1.92;;;;;;;;;;10546668;28;20058;-74
2023/12/11 07:58:47;;;;;;;7.15;2.13;;;;;;;;;;10557168;28;20420;-74
2023/12/11 08:03:52;;;;;;;5.95;1.63;;;;;;;;;;10556988;28;20044;-73
2023/12/11 08:08:55;;;;;;;6.38;1.98;;;;;;;;;;10548962;28;20044;-74
2023/12/11 08:13:58;;;;;;;9.63;2.20;;;;;;;;;;10541478;28;20232;-74
2023/12/11 08:19:03;;;;;;;10.00;1.95;;;;;;;;;;10542519;28;20050;-73
2023/12/11 08:24:06;;;;;;;8.30;2.35;;;;;;;;;;10541358;28;20744;-73
2023/12/11 08:29:10;;;;;;;10.10;2.25;;;;;;;;;;10554984;28;20431;-74
2023/12/11 08:34:14;;;;;;;8.55;1.85;;;;;;;;;;10551222;28;20100;-74
2023/12/11 08:39:18;;;;;;;8.05;2.45;;;;;;;;;;10539215;28;20064;-74
2023/12/11 08:44:21;;;;;;;8.27;2.35;;;;;;;;;;10540541;28;20040;-73
2023/12/11 08:49:25;;;;;;;10.98;2.60;;;;;;;;;;10529728;28;20137;-73
2023/12/11 08:54:29;;;;;;;11.40;2.55;;;;;;;;;;10558491;28;20044;-74
2023/12/11 08:59:32;;;;;;;10.90;2.30;;;;;;;;;;10536560;28;20043;-74
2023/12/11 09:04:37;;;;;;;11.80;3.17;;;;;;;;;;10545615;28;20119;-73
2023/12/11 09:09:40;;;;;;;6.68;2.53;;;;;;;;;;10529974;28;20417;-74
2023/12/11 09:14:44;;;;;;;12.48;2.70;;;;;;;;;;10538755;28;20046;-74
2023/12/11 09:19:49;;;;;;;7.25;1.90;;;;;;;;;;10545174;28;20047;-73
2023/12/11 09:24:53;;;;;;;12.73;2.95;;;;;;;;;;10543768;28;20040;-73
2023/12/11 09:29:56;;;;;;;8.57;2.28;;;;;;;;;;10531915;28;20046;-73
2023/12/11 09:35:01;;;;;;;13.85;3.13;;;;;;;;;;10548525;28;20039;-73
2023/12/11 09:40:06;;;;;;;13.18;3.30;;;;;;;;;;10549895;28;20139;-74
2023/12/11 09:45:12;;;;;;;6.82;2.42;;;;;;;;;;10543955;28;20078;-74
2023/12/11 09:50:20;;;;;;;9.43;2.33;;;;;;;;;;10554188;28;20047;-74
2023/12/11 09:55:23;;;;;;;10.13;2.55;;;;;;;;;;10545608;28;20100;-74
2023/12/11 10:00:27;;;;;;;9.25;3.25;;;;;;;;;;10564115;28;20039;-74
2023/12/11 10:05:35;;;;;;;6.72;2.28;;;;;;;;;;10545716;28;20120;-74
2023/12/11 10:10:40;;;;;;;6.63;2.30;;;;;;;;;;10537319;28;20382;-74
2023/12/11 10:15:44;;;;;;;8.60;2.53;;;;;;;;;;10512230;28;20082;-74
2023/12/11 10:20:54;;;;;;;8.02;2.10;;;;;;;;;;10544551;28;20079;-74
2023/12/11 10:26:06;;;;;;;8.45;1.98;;;;;;;;;;10555555;28;20070;-74
2023/12/11 10:31:09;;;;;;;9.02;2.72;;;;;;;;;;10551243;28;20047;-74
2023/12/11 10:36:15;;;;;;;12.98;2.47;;;;;;;;;;10563419;28;20389;-74
2023/12/11 10:41:26;;;;;;;;;;;;;;;;;;10552064;28;20035;-74
2023/12/11 10:46:30;;;;;;;11.63;3.67;;;;;;;;;;10548610;28;19962;-74
2023/12/11 10:51:35;;;;;;;12.65;2.40;;;;;;;;;;10560746;28;20366;-74
2023/12/11 10:56:40;;;;;;;10.13;2.90;;;;;;;;;;10559401;28;20047;-74
2023/12/11 11:01:47;;;;;;;9.05;2.88;;;;;;;;;;10550112;28;20440;-74
2023/12/11 11:06:56;;;;;;;11.82;2.53;;;;;;;;;;10545691;28;20071;-74
2023/12/11 11:12:08;;;;;;;7.82;1.90;;;;;;;;;;10541003;28;21284;-74
2023/12/11 11:17:11;;;;;;;7.60;2.40;;;;;;;;;;10535582;28;20039;-74
2023/12/11 11:22:21;;;;;;;9.93;2.40;;;;;;;;;;10536416;28;20052;-74
2023/12/11 11:27:40;;;;;;;7.28;1.92;;;;;;;;;;10535115;28;20558;-74
2023/12/11 11:32:54;;;;;;;7.43;2.38;;;;;;;;;;10546138;28;20520;-74
2023/12/11 11:37:58;;;;;;;6.18;2.00;;;;;;;;;;10556219;28;20748;-74
2023/12/11 11:43:03;;;;;;;7.63;1.90;;;;;;;;;;10554346;28;20131;-74
2023/12/11 11:48:06;;;;;;;10.10;2.30;;;;;;;;;;10559212;28;20147;-74
2023/12/11 11:58:31;;;;;;;10.05;2.30;;;;;;;;;;10533408;28;20134;-73
2023/12/11 12:03:40;;;;;;;5.85;1.90;;;;;;;;;;10542424;28;20409;-73
2023/12/11 12:08:45;;;;;;;7.22;2.75;;;;;;;;;;10555116;28;20094;-73
2023/12/11 12:13:48;;;;;;;7.82;2.63;;;;;;;;;;10554383;28;20412;-73
2023/12/11 12:18:52;;;;;;;7.88;2.63;;;;;;;;;;10549536;28;20065;-73
2023/12/11 12:24:04;;;;;;;7.35;1.95;;;;;;;;;;10549968;28;20062;-73
2023/12/11 12:29:09;;;;;;;7.35;2.38;;;;;;;;;;10555520;28;20547;-73
2023/12/11 12:34:13;;;;;;;6.63;2.00;;;;;;;;;;10555824;28;20405;-73
2023/12/11 12:39:20;;;;;;;8.23;2.00;;;;;;;;;;10562789;28;20044;-73
2023/12/11 12:44:23;;;;;;;9.40;2.20;;;;;;;;;;10558790;28;20175;-73
2023/12/11 12:49:26;;;;;;;8.93;2.40;;;;;;;;;;10555892;28;20044;-73
2023/12/11 12:54:50;;;;;;;7.10;1.58;;;;;;;;;;10572130;28;20062;-73
2023/12/11 12:59:54;;;;;;;7.05;2.13;;;;;;;;;;10550209;28;20044;-73
2023/12/11 13:04:57;;;;;;;7.15;2.17;;;;;;;;;;10548736;28;20046;-73
2023/12/11 13:10:10;;;;;;;8.10;1.80;;;;;;;;;;10540594;28;20448;-73
2023/12/11 13:15:13;;;;;;;8.07;2.13;;;;;;;;;;10541894;28;20681;-73
2023/12/11 13:20:17;;;;;;;8.90;1.95;;;;;;;;;;10542143;28;20408;-73
2023/12/11 13:25:23;;;;;;;7.68;1.30;;;;;;;;;;10541916;28;20094;-73
2023/12/11 13:30:26;;;;;;;3.88;1.45;;;;;;;;;;10543194;28;20070;-73
2023/12/11 13:35:29;;;;;;;7.45;2.65;;;;;;;;;;10529458;28;20032;-73
2023/12/11 13:40:34;;;;;;;7.45;2.10;;;;;;;;;;10539174;28;20112;-73
2023/12/11 13:45:37;;;;;;;4.20;1.83;;;;;;;;;;10541210;28;20074;-73
2023/12/11 13:50:42;;;;;;;4.72;1.55;;;;;;;;;;10536956;28;20055;-73
2023/12/11 13:55:46;;;;;;;4.45;1.30;;;;;;;;;;10550938;28;20047;-73
2023/12/11 14:00:50;;;;;;;7.00;1.70;;;;;;;;;;10555661;28;20051;-73
2023/12/11 14:05:53;;;;;;;3.95;1.23;;;;;;;;;;10551738;28;20052;-73
2023/12/11 14:10:59;;;;;;;4.25;1.40;;;;;;;;;;10556506;28;20040;-73
2023/12/11 14:16:02;;;;;;;4.07;1.27;;;;;;;;;;10557390;28;20127;-73
2023/12/11 14:21:06;;;;;;;4.75;1.35;;;;;;;;;;10557390;28;20036;-73
2023/12/11 14:26:11;;;;;;;3.88;1.20;;;;;;;;;;10543309;28;20092;-73
2023/12/11 14:31:14;;;;;;;6.30;1.48;;;;;;;;;;10550823;28;20500;-73
2023/12/11 14:36:17;;;;;;;6.00;1.80;;;;;;;;;;10563453;28;20122;-73
2023/12/11 14:41:22;;;;;;;4.53;1.33;;;;;;;;;;10560419;28;20043;-73
2023/12/11 14:46:26;;;;;;;6.03;1.73;;;;;;;;;;10560270;28;20411;-73
2023/12/11 14:51:29;;;;;;;5.45;1.70;;;;;;;;;;10560974;28;20048;-73
2023/12/11 14:56:34;;;;;;;5.97;1.45;;;;;;;;;;10550002;28;20047;-73
2023/12/11 15:01:38;;;;;;;5.15;1.48;;;;;;;;;;10533863;28;20523;-73
2023/12/11 15:06:41;;;;;;;7.05;1.65;;;;;;;;;;10533307;28;20056;-73
2023/12/11 15:11:46;;;;;;;4.57;1.25;;;;;;;;;;10530388;28;20123;-73
2023/12/11 15:16:50;;;;;;;5.82;1.50;;;;;;;;;;10532007;28;20475;-73
2023/12/11 15:21:53;;;;;;;5.38;1.77;;;;;;;;;;10530559;28;20485;-73
2023/12/11 15:26:58;;;;;;;4.88;1.40;;;;;;;;;;10532191;28;20127;-73
2023/12/11 15:32:01;;;;;;;5.35;1.77;;;;;;;;;;10531541;28;20668;-73
2023/12/11 15:37:05;;;;;;;6.88;1.60;;;;;;;;;;10537868;28;20039;-73
2023/12/11 15:42:10;;;;;;;6.88;1.67;;;;;;;;;;10535332;28;20043;-73
2023/12/11 15:47:13;;;;;;;6.60;1.83;;;;;;;;;;10532577;28;20036;-73
2023/12/11 15:52:16;;;;;;;9.60;3.00;;;;;;;;;;10537051;28;20040;-73
2023/12/11 15:57:21;;;;;;;3.15;1.25;;;;;;;;;;10539285;28;20056;-73
2023/12/11 16:02:24;;;;;;;6.18;1.42;;;;;;;;;;10537404;28;20039;-73
2023/12/11 16:07:27;;;;;;;4.50;1.35;;;;;;;;;;10539304;28;20027;-73
2023/12/11 16:12:32;;;;;;;3.15;1.25;;;;;;;;;;10537076;28;20075;-73
2023/12/11 16:17:35;;;;;;;5.18;1.23;;;;;;;;;;10533402;28;20032;-73
2023/12/11 16:22:38;;;;;;;5.68;1.63;;;;;;;;;;10545457;28;20120;-73
2023/12/11 16:27:43;;;;;;;5.80;2.05;;;;;;;;;;10541227;28;20048;-73
2023/12/11 16:32:46;;;;;;;6.55;1.88;;;;;;;;;;10547366;28;20075;-73
2023/12/11 16:37:51;;;;;;;5.55;1.30;;;;;;;;;;10542116;28;20039;-73
2023/12/11 16:42:55;;;;;;;3.47;1.20;;;;;;;;;;10529637;28;20101;-73
2023/12/11 16:47:59;;;;;;;3.30;1.27;;;;;;;;;;10538790;28;20061;-73
2023/12/11 16:53:04;;;;;;;4.28;1.60;;;;;;;;;;10553961;28;20389;-73
2023/12/11 16:58:09;;;;;;;7.18;2.30;;;;;;;;;;10540517;28;20040;-73
2023/12/11 17:03:12;;;;;;;4.05;1.67;;;;;;;;;;10566829;28;20044;-73
2023/12/11 17:08:16;;;;;;;4.18;1.38;;;;;;;;;;10552532;28;20042;-73
2023/12/11 17:13:20;;;;;;;6.40;1.67;;;;;;;;;;10562601;28;20046;-73
2023/12/11 17:18:24;;;;;;;6.18;1.65;;;;;;;;;;10549738;28;20131;-73
2023/12/11 17:23:28;;;;;;;4.15;1.65;;;;;;;;;;10564131;28;20067;-73
2023/12/11 17:28:32;;;;;;;7.13;1.92;;;;;;;;;;10552072;28;20420;-73
2023/12/11 17:33:36;;;;;;;4.80;1.83;;;;;;;;;;10539958;28;20060;-73
2023/12/11 17:38:39;;;;;;;3.90;1.42;;;;;;;;;;10529724;28;20111;-73
2023/12/11 17:43:44;;;;;;;6.60;1.92;;;;;;;;;;10550384;28;20492;-73
2023/12/11 17:48:50;;;;;;;7.72;1.98;;;;;;;;;;10553114;28;20039;-73
2023/12/11 17:53:53;;;;;;;;;;;;;;;;;;10549864;22;20353;-72
2023/12/11 17:58:58;;;;;;;7.18;2.25;;;;;;;;;;10585617;27;19920;-72
2023/12/11 18:04:01;;;;;;;7.90;2.15;;;;;;;;;;10582890;27;20052;-72
2023/12/11 18:09:04;;;;;;;7.50;2.08;;;;;;;;;;10576869;28;20063;-72
2023/12/11 18:14:09;;;;;;;5.93;1.60;;;;;;;;;;10574370;28;20050;-72
2023/12/11 18:19:13;;;;;;;5.30;1.65;;;;;;;;;;10576589;28;20039;-72
2023/12/11 18:24:16;;;;;;;7.25;2.25;;;;;;;;;;10576074;28;20094;-72
2023/12/11 18:29:20;;;;;;;3.97;1.35;;;;;;;;;;10558182;28;20044;-72
2023/12/11 18:34:25;;;;;;;7.63;2.30;;;;;;;;;;10576129;28;20039;-72
2023/12/11 18:39:34;;;;;;;6.63;2.05;;;;;;;;;;10590074;27;20043;-72
2023/12/11 18:44:38;;;;;;;7.80;2.40;;;;;;;;;;10584156;27;20047;-72
2023/12/11 18:49:43;;;;;;;9.82;2.45;;;;;;;;;;10582728;27;20051;-72
2023/12/11 18:54:46;;;;;;;7.00;2.42;;;;;;;;;;10583799;27;20036;-72
2023/12/11 18:59:51;;;;;;;8.52;2.22;;;;;;;;;;10574597;28;20532;-72
2023/12/11 19:04:54;;;;;;;7.57;2.45;;;;;;;;;;10575666;28;20034;-72
2023/12/11 19:09:58;;;;;;;6.13;2.45;;;;;;;;;;10570524;28;20047;-72
2023/12/11 19:15:03;;;;;;;11.48;2.25;;;;;;;;;;10572476;28;20055;-72
2023/12/11 19:20:09;;;;;;;9.48;2.45;;;;;;;;;;10570044;28;20044;-72
2023/12/11 19:25:13;;;;;;;8.80;2.25;;;;;;;;;;10573830;28;20127;-72
2023/12/11 19:30:19;;;;;;;10.57;4.38;;;;;;;;;;10572645;28;20051;-72
2023/12/11 19:35:22;;;;;;;19.50;7.65;;;;;;;;;;10552646;28;20130;-72
2023/12/11 19:40:25;;;;;;;21.33;8.07;;;;;;;;;;10569291;28;20054;-72
2023/12/11 19:45:30;;;;;;;24.15;10.30;;;;;;;;;;10572567;28;20045;-72
2023/12/11 19:50:33;;;;;;;19.58;6.32;;;;;;;;;;10571593;28;20047;-72
2023/12/11 19:55:37;;;;;;;19.05;6.43;;;;;;;;;;10572131;28;20031;-72
2023/12/11 20:00:42;;;;;;;12.20;4.38;;;;;;;;;;10572150;28;20047;-72
2023/12/11 20:05:46;;;;;;;14.07;3.75;;;;;;;;;;10575221;27;20066;-72
2023/12/11 20:10:49;;;;;;;7.35;2.72;;;;;;;;;;10572629;28;20478;-72
2023/12/11 20:15:56;;;;;;;6.90;2.80;;;;;;;;;;10571977;28;20131;-72
2023/12/11 20:21:01;;;;;;;11.27;3.60;;;;;;;;;;10570552;28;20047;-72
2023/12/11 20:26:08;;;;;;;13.93;3.72;;;;;;;;;;10566552;28;20036;-72
2023/12/11 20:31:17;;;;;;;11.88;4.47;;;;;;;;;;10571539;28;20051;-72
2023/12/11 20:36:21;;;;;;;10.40;3.42;;;;;;;;;;10571671;28;20051;-72
2023/12/11 20:41:26;;;;;;;9.10;2.92;;;;;;;;;;10573883;28;20052;-72
2023/12/11 20:46:32;;;;;;;8.98;2.90;;;;;;;;;;10573915;28;20036;-72
2023/12/11 20:51:36;;;;;;;14.20;3.93;;;;;;;;;;10577198;28;20115;-72
2023/12/11 20:56:39;;;;;;;12.80;2.97;;;;;;;;;;10582084;28;20043;-72
2023/12/11 21:01:43;;;;;;;12.55;3.35;;;;;;;;;;10582072;28;20407;-72
2023/12/11 21:06:47;;;;;;;11.77;3.08;;;;;;;;;;10575254;28;20036;-72
2023/12/11 21:11:53;;;;;;;11.05;3.17;;;;;;;;;;10574248;28;20048;-71
2023/12/11 21:16:57;;;;;;;;;;;;;;;;;;10568003;28;20035;-72
2023/12/11 21:22:01;;;;;;;13.73;2.72;;;;;;;;;;10582050;27;19928;-72
2023/12/11 21:27:04;;;;;;;20.10;8.23;;;;;;;;;;10576938;28;20052;-72
2023/12/11 21:32:09;;;;;;;14.95;3.72;;;;;;;;;;10555196;28;20042;-72
2023/12/11 21:37:12;;;;;;;10.45;3.75;;;;;;;;;;10572415;28;20123;-72
2023/12/11 21:42:16;;;;;;;13.77;3.75;;;;;;;;;;10573529;28;20067;-72
2023/12/11 21:47:20;;;;;;;15.73;4.43;;;;;;;;;;10573203;28;20182;-72
2023/12/11 21:52:24;;;;;;;16.42;3.78;;;;;;;;;;10555157;28;20047;-72
2023/12/11 21:57:28;;;;;;;12.38;3.47;;;;;;;;;;10572690;28;20492;-71
2023/12/11 22:02:32;;;;;;;13.75;3.60;;;;;;;;;;10575585;28;20055;-72
2023/12/11 22:07:36;;;;;;;17.38;3.22;;;;;;;;;;10572965;28;20047;-72
2023/12/11 22:12:39;;;;;;;15.00;3.67;;;;;;;;;;10572848;28;20040;-72
2023/12/11 22:17:44;;;;;;;16.52;3.55;;;;;;;;;;10571129;28;20050;-72
2023/12/11 22:22:47;;;;;;;14.75;3.20;;;;;;;;;;10571752;28;20050;-72
2023/12/11 22:27:50;;;;;;;12.77;3.78;;;;;;;;;;10574375;28;20457;-72
2023/12/11 22:32:55;;;;;;;16.75;4.82;;;;;;;;;;10570937;28;20046;-72
2023/12/11 22:37:59;;;;;;;15.43;4.65;;;;;;;;;;10574300;28;20062;-72
2023/12/11 22:43:02;;;;;;;9.13;3.25;;;;;;;;;;10574957;28;20455;-72
2023/12/11 22:48:09;;;;;;;10.85;3.25;;;;;;;;;;10574090;28;20042;-72
2023/12/11 22:53:12;;;;;;;9.27;3.60;;;;;;;;;;10574199;28;20043;-72
2023/12/11 22:58:15;;;;;;;9.73;3.38;;;;;;;;;;10548245;28;20048;-72
2023/12/11 23:03:20;;;;;;;15.82;4.90;;;;;;;;;;10574325;28;20053;-72
2023/12/11 23:08:26;;;;;;;13.88;4.10;;;;;;;;;;10573148;28;20081;-72
2023/12/11 23:13:29;;;;;;;22.20;5.53;;;;;;;;;;10570983;28;20123;-72
2023/12/11 23:18:34;;;;;;;14.00;3.67;;;;;;;;;;10572659;28;20040;-72
2023/12/11 23:23:37;;;;;;;13.82;4.00;;;;;;;;;;10573319;28;20504;-72
2023/12/11 23:28:40;;;;;;;17.02;4.90;;;;;;;;;;10572655;28;20048;-72
2023/12/11 23:33:45;;;;;;;13.90;4.95;;;;;;;;;;10564737;28;20054;-72
2023/12/11 23:38:48;;;;;;;13.93;2.78;;;;;;;;;;10571931;28;20123;-72
2023/12/11 23:43:52;;;;;;;6.57;2.42;;;;;;;;;;10572821;28;20043;-72
2023/12/11 23:48:57;;;;;;;12.02;3.08;;;;;;;;;;10571571;28;20039;-72
2023/12/11 23:54:00;;;;;;;13.10;3.25;;;;;;;;;;10592252;22;20067;-71
2023/12/11 23:59:08;;;;;;;11.32;2.90;;;;;;;;;;10600763;27;20039;-72
